Time;durP1;ratioP1;P1;durP2;ratioP2;P2;SDS_P1;SDS_P2;PMS_P1;PMS_P2;Temp;Humidity;BMP_temperature;BMP_pressure;BME280_temperature;BME280_humidity;BME280_pressure;Samples;Min_cycle;Max_cycle;Signal;HPM_P1;HPM_P2
2023/04/28 00:00:26;;;;;;;4.15;3.85;;;5.20;99.30;;;;;;4988931;28;20056;-62
2023/04/28 00:02:52;;;;;;;6.30;4.10;;;5.10;98.90;;;;;;4996534;28;20515;-62
2023/04/28 00:05:19;;;;;;;7.60;4.20;;;5.00;98.60;;;;;;4992685;28;20116;-62
2023/04/28 00:07:45;;;;;;;6.80;4.20;;;5.00;98.40;;;;;;5005259;28;20045;-62
2023/04/28 00:10:11;;;;;;;7.13;4.43;;;5.00;98.80;;;;;;5005605;28;20046;-62
2023/04/28 00:12:37;;;;;;;7.70;4.68;;;5.00;98.90;;;;;;5006194;28;20081;-62
2023/04/28 00:15:03;;;;;;;7.40;4.55;;;4.90;99.30;;;;;;5004363;28;20547;-62
2023/04/28 00:17:29;;;;;;;7.93;4.45;;;4.90;98.90;;;;;;4995318;28;20132;-62
2023/04/28 00:19:54;;;;;;;7.90;4.80;;;5.00;99.40;;;;;;5004842;28;20042;-62
2023/04/28 00:22:20;;;;;;;5.18;4.10;;;4.90;99.30;;;;;;4969196;28;20051;-62
2023/04/28 00:24:46;;;;;;;5.97;4.32;;;4.90;99.40;;;;;;4983799;28;20113;-62
2023/04/28 00:27:12;;;;;;;4.72;4.20;;;4.90;99.60;;;;;;4968129;28;20497;-62
2023/04/28 00:29:37;;;;;;;7.03;4.53;;;5.00;99.90;;;;;;4984205;28;20054;-62
2023/04/28 00:32:03;;;;;;;6.70;4.40;;;4.90;99.90;;;;;;4984784;28;20077;-62
2023/04/28 00:34:32;;;;;;;5.60;4.57;;;4.90;99.90;;;;;;4986361;28;20045;-62
2023/04/28 00:36:58;;;;;;;4.88;3.97;;;4.90;99.90;;;;;;4987296;28;20485;-66
2023/04/28 00:39:25;;;;;;;8.38;4.80;;;5.00;99.90;;;;;;4988559;28;20034;-63
2023/04/28 00:41:51;;;;;;;5.65;3.75;;;5.00;99.90;;;;;;4988831;28;20489;-61
2023/04/28 00:44:17;;;;;;;9.98;4.95;;;4.90;99.90;;;;;;4989731;28;20053;-61
2023/04/28 00:46:43;;;;;;;6.88;3.83;;;5.00;99.60;;;;;;4989637;28;20117;-61
2023/04/28 00:49:08;;;;;;;5.45;4.25;;;5.00;98.70;;;;;;4989032;28;20493;-61
2023/04/28 00:51:34;;;;;;;4.25;3.72;;;5.00;97.90;;;;;;4990256;28;20061;-61
2023/04/28 00:54:00;;;;;;;5.05;3.88;;;5.00;97.10;;;;;;4971118;28;20042;-61
2023/04/28 00:56:30;;;;;;;6.90;4.18;;;4.90;97.00;;;;;;4988561;28;20042;-61
2023/04/28 00:58:56;;;;;;;4.40;4.03;;;4.90;97.60;;;;;;4988283;28;20086;-61
2023/04/28 01:01:22;;;;;;;6.35;4.45;;;4.90;97.60;;;;;;4989494;28;20050;-61
2023/04/28 01:03:48;;;;;;;7.53;5.05;;;4.90;98.60;;;;;;4988591;28;20057;-61
2023/04/28 01:06:15;;;;;;;7.38;3.90;;;5.00;99.10;;;;;;4987704;28;20133;-62
2023/04/28 01:08:41;;;;;;;8.48;4.97;;;5.00;99.30;;;;;;4988997;28;20050;-61
2023/04/28 01:11:09;;;;;;;8.25;4.53;;;5.00;99.80;;;;;;4986752;28;20050;-61
2023/04/28 01:13:35;;;;;;;7.05;4.60;;;5.00;99.90;;;;;;4989695;28;20329;-61
2023/04/28 01:16:01;;;;;;;6.32;4.70;;;5.00;99.90;;;;;;4988187;28;20472;-61
2023/04/28 01:18:27;;;;;;;11.27;5.35;;;5.00;99.90;;;;;;4989578;28;20038;-61
2023/04/28 01:20:53;;;;;;;8.48;4.97;;;5.00;99.90;;;;;;4989724;28;20130;-61
2023/04/28 01:23:19;;;;;;;6.70;5.05;;;5.10;99.90;;;;;;4994920;28;20136;-61
2023/04/28 01:25:45;;;;;;;6.13;4.82;;;5.20;99.90;;;;;;5008508;28;20108;-61
2023/04/28 01:28:11;;;;;;;6.00;5.35;;;5.20;99.90;;;;;;5007515;28;20484;-61
2023/04/28 01:30:37;;;;;;;10.80;5.70;;;5.20;99.90;;;;;;4999673;28;20046;-61
2023/04/28 01:33:03;;;;;;;9.57;5.85;;;5.30;99.90;;;;;;4992008;28;20499;-61
2023/04/28 01:35:29;;;;;;;7.90;5.90;;;5.30;99.90;;;;;;4998447;28;20046;-61
2023/04/28 01:37:55;;;;;;;10.27;5.85;;;5.30;99.90;;;;;;5007549;28;20053;-61
2023/04/28 01:40:21;;;;;;;7.22;6.10;;;5.30;99.90;;;;;;5008434;28;20049;-61
2023/04/28 01:42:47;;;;;;;12.07;4.97;;;5.30;99.90;;;;;;4990119;28;20046;-73
2023/04/28 01:45:12;;;;;;;5.85;5.25;;;5.30;99.90;;;;;;5007955;28;20133;-61
2023/04/28 01:47:38;;;;;;;12.10;5.88;;;5.30;99.90;;;;;;5007191;28;20057;-61
2023/04/28 01:50:05;;;;;;;10.00;5.45;;;5.40;99.90;;;;;;5007856;28;20030;-61
2023/04/28 01:52:30;;;;;;;11.80;5.75;;;5.30;99.90;;;;;;5008295;28;20049;-61
2023/04/28 01:54:56;;;;;;;5.72;4.93;;;5.40;99.90;;;;;;5006137;28;20572;-61
2023/04/28 01:57:22;;;;;;;8.45;6.22;;;5.40;99.90;;;;;;5008424;28;20045;-61
2023/04/28 01:59:47;;;;;;;8.57;6.00;;;5.40;99.90;;;;;;5007250;28;20183;-61
2023/04/28 02:02:13;;;;;;;9.25;6.43;;;5.40;99.90;;;;;;5000080;28;20046;-61
2023/04/28 02:04:39;;;;;;;8.65;6.28;;;5.40;99.90;;;;;;4996718;28;20500;-61
2023/04/28 02:07:05;;;;;;;9.60;6.20;;;5.40;99.90;;;;;;5007535;28;20081;-61
2023/04/28 02:09:32;;;;;;;10.38;5.88;;;5.40;99.90;;;;;;5007125;28;20437;-61
2023/04/28 02:12:01;;;;;;;9.55;5.63;;;5.40;99.90;;;;;;5007196;28;20054;-60
2023/04/28 02:14:28;;;;;;;9.65;6.13;;;5.50;99.90;;;;;;5007500;28;20041;-62
2023/04/28 02:16:53;;;;;;;16.45;6.57;;;5.50;99.90;;;;;;5006976;28;20409;-61
2023/04/28 02:19:19;;;;;;;7.65;6.20;;;5.50;99.90;;;;;;5007299;28;20060;-61
2023/04/28 02:21:45;;;;;;;12.55;6.85;;;5.60;99.90;;;;;;5006693;28;20054;-60
2023/04/28 02:24:11;;;;;;;9.02;5.70;;;5.60;99.90;;;;;;5007335;28;20207;-61
2023/04/28 02:26:37;;;;;;;8.63;5.68;;;5.60;99.90;;;;;;5006997;28;20121;-61
2023/04/28 02:29:06;;;;;;;9.38;6.30;;;5.60;99.90;;;;;;5006864;28;20097;-61
2023/04/28 02:31:32;;;;;;;9.95;6.03;;;5.60;99.90;;;;;;5006599;28;20038;-61
2023/04/28 02:33:58;;;;;;;8.73;5.90;;;5.50;99.90;;;;;;5005359;28;20143;-61
2023/04/28 02:36:24;;;;;;;8.68;4.75;;;5.60;99.90;;;;;;4989697;28;20459;-61
2023/04/28 02:38:50;;;;;;;11.68;6.32;;;5.50;99.90;;;;;;4988633;28;20077;-61
2023/04/28 02:41:16;;;;;;;12.80;6.47;;;5.50;99.90;;;;;;5006635;28;20050;-61
2023/04/28 02:43:42;;;;;;;13.90;6.80;;;5.60;99.90;;;;;;4989466;28;20049;-61
2023/04/28 02:46:07;;;;;;;10.60;5.97;;;5.60;99.90;;;;;;4988592;28;20444;-61
2023/04/28 02:48:34;;;;;;;8.43;6.80;;;5.60;99.90;;;;;;5006618;28;20042;-61
2023/04/28 02:51:03;;;;;;;9.35;6.30;;;5.60;99.90;;;;;;5001286;28;20045;-62
2023/04/28 02:53:29;;;;;;;11.27;7.00;;;5.60;99.90;;;;;;5007335;28;20385;-61
2023/04/28 02:55:55;;;;;;;9.93;6.40;;;5.70;99.90;;;;;;5005999;28;20050;-61
2023/04/28 02:58:21;;;;;;;12.85;6.80;;;5.70;99.90;;;;;;5006336;28;20512;-61
2023/04/28 03:00:47;;;;;;;11.68;7.07;;;5.70;99.90;;;;;;5005515;28;20081;-61
2023/04/28 03:03:13;;;;;;;11.95;7.57;;;5.70;99.90;;;;;;5008543;28;20046;-61
2023/04/28 03:05:39;;;;;;;11.75;8.05;;;5.80;99.90;;;;;;5007984;28;20054;-82
2023/04/28 03:08:05;;;;;;;13.15;7.72;;;5.80;99.90;;;;;;4990445;28;20441;-62
2023/04/28 03:10:30;;;;;;;11.05;7.97;;;5.80;99.90;;;;;;5007094;28;20117;-62
2023/04/28 03:12:56;;;;;;;13.48;8.32;;;5.90;99.90;;;;;;5005915;28;20117;-61
2023/04/28 03:15:22;;;;;;;19.85;8.70;;;5.90;99.90;;;;;;4992428;28;20484;-61
2023/04/28 03:17:47;;;;;;;17.65;9.55;;;5.80;99.90;;;;;;4981349;28;20373;-61
2023/04/28 03:20:13;;;;;;;14.38;9.55;;;5.90;99.80;;;;;;5006453;28;20045;-61
2023/04/28 03:22:39;;;;;;;14.95;9.15;;;5.90;99.20;;;;;;5005464;28;20087;-61
2023/04/28 03:25:05;;;;;;;15.35;9.48;;;5.90;98.30;;;;;;5005692;28;20050;-61
2023/04/28 03:27:30;;;;;;;22.55;8.98;;;5.90;98.20;;;;;;5005712;28;20056;-61
2023/04/28 03:29:56;;;;;;;19.38;10.52;;;5.90;97.70;;;;;;5005339;28;20034;-62
2023/04/28 03:32:22;;;;;;;17.95;9.82;;;6.00;97.70;;;;;;5006027;28;20496;-61
2023/04/28 03:34:48;;;;;;;14.73;9.65;;;6.00;97.00;;;;;;5002643;28;20081;-61
2023/04/28 03:37:13;;;;;;;14.48;9.25;;;6.00;96.80;;;;;;5007176;28;20575;-61
2023/04/28 03:39:39;;;;;;;15.85;10.50;;;6.00;96.80;;;;;;5003958;28;20062;-61
2023/04/28 03:42:05;;;;;;;14.02;8.90;;;6.00;97.00;;;;;;5006647;28;20042;-61
2023/04/28 03:44:31;;;;;;;14.55;9.52;;;6.00;96.40;;;;;;5005375;28;20046;-61
2023/04/28 03:46:56;;;;;;;14.73;8.35;;;6.00;95.80;;;;;;5005675;28;20084;-61
2023/04/28 03:49:22;;;;;;;17.00;9.10;;;6.00;95.00;;;;;;5005981;28;20080;-61
2023/04/28 03:51:50;;;;;;;14.38;8.82;;;6.00;96.00;;;;;;5005390;28;20045;-61
2023/04/28 03:54:16;;;;;;;11.73;9.38;;;6.00;95.20;;;;;;5005697;28;20050;-61
2023/04/28 03:56:41;;;;;;;12.98;7.63;;;6.00;95.40;;;;;;5003679;28;20049;-61
2023/04/28 03:59:10;;;;;;;9.68;7.72;;;6.00;94.60;;;;;;5005345;28;20127;-61
2023/04/28 04:01:36;;;;;;;13.70;9.20;;;6.00;94.60;;;;;;5005456;28;20057;-61
2023/04/28 04:04:03;;;;;;;14.35;8.10;;;6.00;95.10;;;;;;5005667;28;20122;-61
2023/04/28 04:06:28;;;;;;;13.75;8.13;;;6.00;94.80;;;;;;5005939;28;20517;-61
2023/04/28 04:08:54;;;;;;;14.45;7.60;;;6.00;93.70;;;;;;5005006;28;20081;-61
2023/04/28 04:11:20;;;;;;;13.50;7.75;;;6.00;93.00;;;;;;5006364;28;20131;-61
2023/04/28 04:13:46;;;;;;;14.30;7.82;;;6.10;93.20;;;;;;5008605;28;20053;-61
2023/04/28 04:16:14;;;;;;;15.55;7.47;;;6.00;92.00;;;;;;4998777;28;20026;-61
2023/04/28 04:18:40;;;;;;;10.48;7.18;;;6.10;92.30;;;;;;5009182;28;20243;-62
2023/04/28 04:21:06;;;;;;;11.30;7.30;;;6.10;92.50;;;;;;5009165;28;20038;-61
2023/04/28 04:23:33;;;;;;;13.07;6.63;;;6.10;91.90;;;;;;4999824;28;20096;-61
2023/04/28 04:25:59;;;;;;;11.57;7.15;;;6.10;91.80;;;;;;5009147;28;20061;-61
2023/04/28 04:28:25;;;;;;;14.13;7.32;;;6.10;90.50;;;;;;4997991;28;20467;-61
2023/04/28 04:30:50;;;;;;;15.73;7.13;;;6.10;90.30;;;;;;5007697;28;20108;-61
2023/04/28 04:33:16;;;;;;;14.45;7.20;;;6.10;90.30;;;;;;5009604;28;20691;-61
2023/04/28 04:35:42;;;;;;;13.20;7.10;;;6.10;88.30;;;;;;5008382;28;20046;-61
2023/04/28 04:38:08;;;;;;;9.10;6.63;;;6.10;89.50;;;;;;5009399;28;20053;-61
2023/04/28 04:40:34;;;;;;;17.85;6.60;;;6.10;90.50;;;;;;5005698;28;20445;-61
2023/04/28 04:43:00;;;;;;;10.02;7.13;;;6.10;89.10;;;;;;5008980;28;20045;-61
2023/04/28 04:45:26;;;;;;;11.60;7.03;;;6.00;88.60;;;;;;5009398;28;20042;-61
2023/04/28 04:47:52;;;;;;;9.35;6.72;;;6.00;89.60;;;;;;5008331;28;20046;-61
2023/04/28 04:50:18;;;;;;;9.80;7.10;;;6.00;88.80;;;;;;5009616;28;20050;-61
2023/04/28 04:52:44;;;;;;;11.05;6.88;;;6.00;88.20;;;;;;5006535;28;20378;-61
2023/04/28 04:55:12;;;;;;;8.52;6.97;;;5.90;88.50;;;;;;4996668;28;20383;-61
2023/04/28 04:57:38;;;;;;;12.10;7.50;;;6.00;87.80;;;;;;5008502;28;20073;-61
2023/04/28 05:00:04;;;;;;;10.07;7.53;;;5.90;88.40;;;;;;5008587;28;20077;-61
2023/04/28 05:02:30;;;;;;;12.68;7.38;;;5.90;89.30;;;;;;5008360;28;20120;-61
2023/04/28 05:04:56;;;;;;;10.23;7.35;;;6.00;90.10;;;;;;5007982;28;20527;-61
2023/04/28 05:07:21;;;;;;;10.82;7.38;;;6.00;90.10;;;;;;5009160;28;20044;-61
2023/04/28 05:09:47;;;;;;;10.85;7.20;;;6.00;90.60;;;;;;5002458;28;20064;-61
2023/04/28 05:12:13;;;;;;;12.88;8.02;;;6.00;91.00;;;;;;5008706;28;20105;-62
2023/04/28 05:14:38;;;;;;;9.68;7.35;;;6.00;91.80;;;;;;4996288;28;20574;-61
2023/04/28 05:17:04;;;;;;;19.25;8.00;;;6.10;91.70;;;;;;5008360;28;20042;-61
2023/04/28 05:19:30;;;;;;;12.82;8.02;;;6.10;90.80;;;;;;5008606;28;20099;-62
2023/04/28 05:21:56;;;;;;;11.10;7.72;;;6.20;91.80;;;;;;5006719;28;20050;-61
2023/04/28 05:24:25;;;;;;;15.48;8.35;;;6.20;90.90;;;;;;5008282;28;20046;-61
2023/04/28 05:26:51;;;;;;;10.20;7.05;;;6.30;90.90;;;;;;5007696;28;20041;-61
2023/04/28 05:29:17;;;;;;;14.35;8.02;;;6.30;89.00;;;;;;5008273;28;20057;-61
2023/04/28 05:31:43;;;;;;;13.85;8.02;;;6.30;89.90;;;;;;5007206;28;20052;-61
2023/04/28 05:34:08;;;;;;;11.85;7.63;;;6.30;90.20;;;;;;5009076;28;20046;-61
2023/04/28 05:36:34;;;;;;;11.88;7.50;;;6.30;89.70;;;;;;5006317;28;20046;-61
2023/04/28 05:39:00;;;;;;;12.27;7.22;;;6.40;88.80;;;;;;5008707;28;20050;-62
2023/04/28 05:41:26;;;;;;;11.55;6.50;;;6.40;86.10;;;;;;5008339;28;20061;-65
2023/04/28 05:43:52;;;;;;;13.18;8.43;;;6.40;86.20;;;;;;5007392;28;20037;-61
2023/04/28 05:46:18;;;;;;;13.40;7.68;;;6.50;84.10;;;;;;5008592;28;20053;-67
2023/04/28 05:48:44;;;;;;;9.88;7.53;;;6.50;84.40;;;;;;5006893;28;20180;-61
2023/04/28 05:51:10;;;;;;;12.30;7.65;;;6.60;82.80;;;;;;5008875;28;20471;-61
2023/04/28 05:53:36;;;;;;;10.15;7.25;;;6.70;84.50;;;;;;5007439;28;20022;-61
2023/04/28 05:56:02;;;;;;;13.68;7.43;;;6.70;80.80;;;;;;5008204;28;20042;-61
2023/04/28 05:58:28;;;;;;;13.77;7.75;;;6.70;79.90;;;;;;5007678;28;20053;-61
2023/04/28 06:00:54;;;;;;;12.45;6.90;;;6.80;78.00;;;;;;5007378;28;20045;-62
2023/04/28 06:03:20;;;;;;;11.20;7.57;;;6.80;76.90;;;;;;5007767;28;20423;-61
2023/04/28 06:05:46;;;;;;;10.68;6.90;;;6.80;74.30;;;;;;4989306;28;20045;-61
2023/04/28 06:08:11;;;;;;;9.65;5.88;;;6.80;74.50;;;;;;5008304;28;20130;-61
2023/04/28 06:10:37;;;;;;;13.13;6.57;;;6.80;73.50;;;;;;5000535;28;20444;-61
2023/04/28 06:13:05;;;;;;;13.02;7.15;;;6.80;72.30;;;;;;5006576;28;20046;-61
2023/04/28 06:15:31;;;;;;;12.70;6.82;;;6.90;72.60;;;;;;5005959;28;20133;-61
2023/04/28 06:17:58;;;;;;;10.10;7.00;;;6.90;72.50;;;;;;5006658;28;20152;-61
2023/04/28 06:20:24;;;;;;;12.45;6.60;;;6.90;72.90;;;;;;5007679;28;20049;-62
2023/04/28 06:22:50;;;;;;;12.88;7.68;;;7.00;71.70;;;;;;5006360;28;20524;-61
2023/04/28 06:25:16;;;;;;;12.13;6.90;;;7.00;69.70;;;;;;5008021;28;20050;-61
2023/04/28 06:27:42;;;;;;;12.63;7.60;;;7.10;71.10;;;;;;5006191;28;20034;-62
2023/04/28 06:30:08;;;;;;;10.65;6.88;;;7.10;71.50;;;;;;5007492;28;20048;-61
2023/04/28 06:32:34;;;;;;;12.05;6.90;;;7.20;69.90;;;;;;5006503;28;20507;-61
2023/04/28 06:34:59;;;;;;;12.68;6.68;;;7.20;67.40;;;;;;5006749;28;20042;-62
2023/04/28 06:37:25;;;;;;;9.45;6.45;;;7.20;68.20;;;;;;5007080;28;20042;-61
2023/04/28 06:39:51;;;;;;;9.57;6.75;;;7.30;67.40;;;;;;4988973;28;20040;-61
2023/04/28 06:42:19;;;;;;;10.00;6.95;;;7.30;65.50;;;;;;5006464;28;20464;-61
2023/04/28 06:44:45;;;;;;;15.43;6.57;;;7.30;66.30;;;;;;5005249;28;20107;-61
2023/04/28 06:47:10;;;;;;;8.05;6.00;;;7.40;66.30;;;;;;5004668;28;20050;-61
2023/04/28 06:49:36;;;;;;;10.85;6.53;;;7.40;66.30;;;;;;4990771;28;20061;-61
2023/04/28 06:52:02;;;;;;;13.65;6.55;;;7.40;63.80;;;;;;4998731;28;20046;-61
2023/04/28 06:54:28;;;;;;;12.57;6.50;;;7.40;62.10;;;;;;4997387;28;20042;-62
2023/04/28 06:56:53;;;;;;;13.85;6.68;;;7.40;66.30;;;;;;5001952;28;20469;-62
2023/04/28 06:59:19;;;;;;;14.25;7.28;;;7.50;66.30;;;;;;5004881;28;20361;-61
2023/04/28 07:01:45;;;;;;;8.90;6.55;;;7.50;65.30;;;;;;4986060;28;20088;-61
2023/04/28 07:04:11;;;;;;;12.82;8.65;;;7.60;64.30;;;;;;5004384;28;20042;-61
2023/04/28 07:06:37;;;;;;;8.98;6.05;;;7.70;65.90;;;;;;4986534;28;20120;-61
2023/04/28 07:09:03;;;;;;;8.90;6.00;;;7.70;59.50;;;;;;4987247;28;20499;-61
2023/04/28 07:11:31;;;;;;;8.27;5.53;;;7.70;58.10;;;;;;5004983;28;20451;-61
2023/04/28 07:13:56;;;;;;;12.80;6.45;;;7.80;56.50;;;;;;4994770;28;20068;-61
2023/04/28 07:16:22;;;;;;;10.77;6.43;;;7.80;60.00;;;;;;5006067;28;20133;-61
2023/04/28 07:18:48;;;;;;;19.77;5.90;;;7.80;59.40;;;;;;5006137;28;20049;-61
2023/04/28 07:21:14;;;;;;;8.50;5.30;;;7.70;60.00;;;;;;5006313;28;20211;-61
2023/04/28 07:23:40;;;;;;;12.43;6.45;;;7.70;56.70;;;;;;5005780;28;20049;-61
2023/04/28 07:26:07;;;;;;;10.45;6.18;;;7.80;62.10;;;;;;5006520;28;20428;-61
2023/04/28 07:28:33;;;;;;;16.60;6.60;;;7.80;59.90;;;;;;5005564;28;20116;-61
2023/04/28 07:30:58;;;;;;;15.40;6.25;;;7.90;59.80;;;;;;5006436;28;20049;-61
2023/04/28 07:33:24;;;;;;;9.52;6.45;;;8.00;60.30;;;;;;4987974;28;20042;-61
2023/04/28 07:35:51;;;;;;;11.00;5.72;;;8.00;59.80;;;;;;4971749;28;20042;-61
2023/04/28 07:38:19;;;;;;;11.57;6.50;;;8.10;59.90;;;;;;5006321;28;20053;-61
2023/04/28 07:40:45;;;;;;;13.38;5.78;;;8.20;57.80;;;;;;5008043;28;20060;-62
2023/04/28 07:43:11;;;;;;;12.48;6.22;;;8.20;59.50;;;;;;4989832;28;20103;-61
2023/04/28 07:45:40;;;;;;;10.50;5.72;;;8.30;58.40;;;;;;4988025;28;20124;-62
2023/04/28 07:48:06;;;;;;;12.45;5.90;;;8.40;57.50;;;;;;4988997;28;20052;-62
2023/04/28 07:50:33;;;;;;;10.75;5.93;;;8.40;56.70;;;;;;5005578;28;20554;-62
2023/04/28 07:52:59;;;;;;;12.52;6.55;;;8.40;55.80;;;;;;5006077;28;20078;-62
2023/04/28 07:55:25;;;;;;;6.93;5.38;;;8.40;58.20;;;;;;5005312;28;20411;-62
2023/04/28 07:57:51;;;;;;;9.05;5.97;;;8.50;59.40;;;;;;5005624;28;20184;-62
2023/04/28 08:00:18;;;;;;;8.60;6.38;;;8.50;53.90;;;;;;5006081;28;20400;-63
2023/04/28 08:02:43;;;;;;;10.63;6.07;;;8.50;55.20;;;;;;4987480;28;20496;-62
2023/04/28 08:05:10;;;;;;;8.98;5.75;;;8.50;54.90;;;;;;4987533;28;20051;-62
2023/04/28 08:07:36;;;;;;;9.85;5.55;;;8.50;56.90;;;;;;5005005;28;20042;-62
2023/04/28 08:10:03;;;;;;;11.88;6.15;;;8.50;51.30;;;;;;4995030;28;20104;-62
2023/04/28 08:12:29;;;;;;;6.70;5.50;;;8.40;52.00;;;;;;5005638;28;20042;-62
2023/04/28 08:14:55;;;;;;;11.20;5.65;;;8.40;53.20;;;;;;5004420;28;20456;-62
2023/04/28 08:17:21;;;;;;;12.40;6.38;;;8.50;51.50;;;;;;4982520;28;20042;-62
2023/04/28 08:19:47;;;;;;;9.35;6.28;;;8.50;52.10;;;;;;5005327;28;20045;-62
2023/04/28 08:22:13;;;;;;;8.02;5.85;;;8.60;56.80;;;;;;5004664;28;20563;-62
2023/04/28 08:24:39;;;;;;;10.65;6.18;;;8.70;55.90;;;;;;5002143;28;20085;-63
2023/04/28 08:27:05;;;;;;;11.38;5.95;;;8.90;59.20;;;;;;4971841;28;20050;-62
2023/04/28 08:29:31;;;;;;;13.88;6.78;;;8.90;56.10;;;;;;5004871;28;20038;-61
2023/04/28 08:31:57;;;;;;;8.43;5.90;;;9.00;55.20;;;;;;4987665;28;20049;-62
2023/04/28 08:34:23;;;;;;;8.27;5.88;;;9.00;52.20;;;;;;4971045;28;20054;-62
2023/04/28 08:36:51;;;;;;;12.60;5.90;;;9.00;57.50;;;;;;4985266;28;20052;-62
2023/04/28 08:39:19;;;;;;;10.65;5.90;;;9.00;54.60;;;;;;4987500;28;20081;-62
2023/04/28 08:41:45;;;;;;;11.70;5.03;;;9.10;57.00;;;;;;5004111;28;20046;-62
2023/04/28 08:44:11;;;;;;;8.75;5.82;;;9.00;51.40;;;;;;5005719;28;20053;-62
2023/04/28 08:46:41;;;;;;;11.45;5.93;;;9.00;51.70;;;;;;4986969;28;20117;-63
2023/04/28 08:49:17;;;;;;;8.23;5.88;;;9.10;52.40;;;;;;5005473;28;20484;-62
2023/04/28 08:51:50;;;;;;;9.85;5.70;;;9.10;52.20;;;;;;5002707;28;20050;-62
2023/04/28 08:54:18;;;;;;;8.07;5.95;;;9.20;50.80;;;;;;4987346;28;20088;-62
2023/04/28 08:56:45;;;;;;;10.20;6.20;;;9.40;49.30;;;;;;5002859;28;20073;-62
2023/04/28 08:59:12;;;;;;;11.43;4.78;;;9.50;50.10;;;;;;5007707;28;20612;-62
2023/04/28 09:01:38;;;;;;;7.18;5.10;;;9.50;44.10;;;;;;5009375;28;20039;-62
2023/04/28 09:04:04;;;;;;;10.95;5.75;;;9.50;42.40;;;;;;5001099;28;20181;-62
2023/04/28 09:06:36;;;;;;;12.02;5.63;;;9.50;45.20;;;;;;5009433;28;20064;-62
2023/04/28 09:09:26;;;;;;;8.55;5.20;;;9.40;42.10;;;;;;5002043;28;20084;-62
2023/04/28 09:11:57;;;;;;;;;;;9.30;40.50;;;;;;4989302;28;20050;-62
2023/04/28 09:14:23;;;;;;;12.80;5.80;;;9.30;44.90;;;;;;5008902;28;20035;-62
2023/04/28 09:16:50;;;;;;;8.35;5.15;;;9.30;44.50;;;;;;5007836;28;20444;-62
2023/04/28 09:19:16;;;;;;;7.50;4.95;;;9.40;48.80;;;;;;5008683;28;20077;-62
2023/04/28 09:21:51;;;;;;;9.23;4.85;;;9.40;46.10;;;;;;4973205;28;20050;-62
2023/04/28 09:24:28;;;;;;;13.02;4.90;;;9.40;45.40;;;;;;5000869;28;20121;-62
2023/04/28 09:26:54;;;;;;;7.07;5.07;;;9.40;45.50;;;;;;4997073;28;20041;-62
2023/04/28 09:29:20;;;;;;;8.93;5.47;;;9.40;45.10;;;;;;5007069;28;20073;-62
2023/04/28 09:31:46;;;;;;;7.10;5.20;;;9.40;46.60;;;;;;4975226;28;20096;-66
2023/04/28 09:34:12;;;;;;;9.02;5.25;;;9.40;46.60;;;;;;4941532;28;20132;-62
2023/04/28 09:36:38;;;;;;;17.20;6.18;;;9.50;50.30;;;;;;4974901;28;20576;-62
2023/04/28 09:39:04;;;;;;;12.43;5.78;;;9.50;47.90;;;;;;5007869;28;20117;-62
2023/04/28 09:41:42;;;;;;;7.28;5.28;;;9.50;52.00;;;;;;4990066;28;20077;-62
2023/04/28 09:44:17;;;;;;;6.75;5.00;;;9.50;49.40;;;;;;4974372;28;20058;-63
2023/04/28 09:46:44;;;;;;;9.18;4.55;;;9.50;51.10;;;;;;5007465;28;20045;-61
2023/04/28 09:49:14;;;;;;;13.10;4.57;;;9.50;49.10;;;;;;4990835;28;20053;-61
2023/04/28 09:51:40;;;;;;;7.75;4.50;;;9.40;50.10;;;;;;4989499;28;20040;-61
2023/04/28 09:54:06;;;;;;;13.63;5.18;;;9.40;50.60;;;;;;4990884;28;20052;-61
2023/04/28 09:56:37;;;;;;;8.85;5.03;;;9.40;52.10;;;;;;5007196;28;20120;-61
2023/04/28 09:59:03;;;;;;;9.02;5.05;;;9.50;53.10;;;;;;5007973;28;20045;-62
2023/04/28 10:01:39;;;;;;;6.20;4.55;;;9.60;55.60;;;;;;5006707;28;20046;-62
2023/04/28 10:04:06;;;;;;;9.38;5.28;;;9.80;51.90;;;;;;4986379;28;20042;-62
2023/04/28 10:06:35;;;;;;;10.57;4.90;;;10.00;55.60;;;;;;5004772;28;20064;-62
2023/04/28 10:09:01;;;;;;;15.43;5.15;;;10.40;54.30;;;;;;4988250;28;20056;-62
2023/04/28 10:11:29;;;;;;;9.43;5.10;;;10.80;48.50;;;;;;5004206;28;20038;-62
2023/04/28 10:13:55;;;;;;;7.38;4.78;;;11.40;63.20;;;;;;5007903;28;20056;-62
2023/04/28 10:16:22;;;;;;;7.72;4.18;;;11.90;43.80;;;;;;5006735;28;20112;-62
2023/04/28 10:18:49;;;;;;;8.85;4.30;;;12.20;34.70;;;;;;5007603;28;20049;-62
2023/04/28 10:21:17;;;;;;;12.27;4.95;;;12.00;28.80;;;;;;5004539;28;20078;-62
2023/04/28 10:23:59;;;;;;;7.18;5.25;;;12.00;39.70;;;;;;5008077;28;20070;-62
2023/04/28 10:26:50;;;;;;;8.27;5.45;;;12.10;39.30;;;;;;5005383;28;20038;-62
2023/04/28 10:29:16;;;;;;;7.50;5.07;;;12.30;41.70;;;;;;5006778;28;20042;-62
2023/04/28 10:32:15;;;;;;;8.23;5.30;;;12.40;32.00;;;;;;4993014;28;20521;-62
2023/04/28 10:34:40;;;;;;;10.18;5.43;;;12.40;28.80;;;;;;5006689;28;20089;-62
2023/04/28 10:37:06;;;;;;;7.72;5.63;;;12.40;30.90;;;;;;4989294;28;20520;-61
2023/04/28 10:39:32;;;;;;;10.20;5.30;;;12.70;31.00;;;;;;4987143;28;20100;-62
2023/04/28 10:41:58;;;;;;;8.52;4.80;;;13.20;30.60;;;;;;5006046;28;20441;-62
2023/04/28 10:44:27;;;;;;;11.60;5.03;;;13.30;24.30;;;;;;4989208;28;20049;-62
2023/04/28 10:47:06;;;;;;;10.52;5.45;;;13.30;26.90;;;;;;5006054;28;20776;-61
2023/04/28 10:49:53;;;;;;;10.25;5.47;;;13.50;29.80;;;;;;5007095;28;20053;-61
2023/04/28 10:52:38;;;;;;;10.93;5.25;;;13.60;32.60;;;;;;5000633;28;20069;-61
2023/04/28 10:55:35;;;;;;;7.50;4.88;;;13.40;24.30;;;;;;5008096;28;20061;-61
2023/04/28 10:58:29;;;;;;;9.10;5.22;;;13.20;26.30;;;;;;4989188;28;20054;-61
2023/04/28 11:01:15;;;;;;;6.95;5.13;;;12.80;25.20;;;;;;4998377;28;20485;-61
2023/04/28 11:03:48;;;;;;;16.48;5.68;;;12.90;27.80;;;;;;5006319;28;20069;-61
2023/04/28 11:09:14;;;;;;;9.10;5.45;;;12.90;29.40;;;;;;4987797;28;20411;-61
2023/04/28 11:11:59;;;;;;;10.75;5.13;;;12.90;29.00;;;;;;4975676;28;20065;-61
2023/04/28 11:14:28;;;;;;;8.18;5.95;;;12.90;32.30;;;;;;4998506;28;20049;-61
2023/04/28 11:17:05;;;;;;;10.73;5.45;;;13.00;30.60;;;;;;5003689;28;20151;-61
2023/04/28 11:19:33;;;;;;;10.07;4.97;;;13.00;33.30;;;;;;5005937;28;20121;-61
2023/04/28 11:22:16;;;;;;;10.82;5.25;;;12.90;30.20;;;;;;5005270;28;20089;-62
2023/04/28 11:25:00;;;;;;;8.10;5.35;;;12.80;32.00;;;;;;4989299;28;20049;-62
2023/04/28 11:27:27;;;;;;;11.75;4.93;;;12.60;31.00;;;;;;5005462;28;20049;-62
2023/04/28 11:29:53;;;;;;;11.65;5.03;;;12.50;30.30;;;;;;5005138;28;20049;-61
2023/04/28 11:32:33;;;;;;;8.20;5.00;;;12.40;36.10;;;;;;5005799;28;20054;-61
2023/04/28 11:34:59;;;;;;;11.27;5.32;;;12.20;39.80;;;;;;5005385;28;20085;-61
2023/04/28 11:37:25;;;;;;;8.30;5.47;;;12.10;42.50;;;;;;4988749;28;20163;-64
2023/04/28 11:39:51;;;;;;;13.32;5.13;;;12.10;45.30;;;;;;4987103;28;20050;-62
2023/04/28 11:42:17;;;;;;;7.57;5.05;;;12.00;47.40;;;;;;4988159;28;20543;-61
2023/04/28 11:44:51;;;;;;;12.68;5.20;;;12.10;51.90;;;;;;4987809;28;20057;-61
2023/04/28 11:47:31;;;;;;;8.93;5.38;;;12.10;49.10;;;;;;4987773;28;20057;-62
2023/04/28 11:49:57;;;;;;;7.82;4.97;;;12.10;55.00;;;;;;4967221;28;20915;-62
2023/04/28 11:52:24;;;;;;;7.63;4.80;;;12.00;50.20;;;;;;5002555;28;20500;-62
2023/04/28 11:54:58;;;;;;;13.25;4.90;;;12.00;55.00;;;;;;5005729;28;20042;-62
2023/04/28 11:57:25;;;;;;;7.85;5.28;;;12.00;54.90;;;;;;5004697;28;20045;-61
2023/04/28 11:59:51;;;;;;;10.30;5.57;;;11.90;57.50;;;;;;5005708;28;20484;-60
2023/04/28 12:02:27;;;;;;;9.30;5.30;;;11.80;61.80;;;;;;4987988;28;20053;-61
2023/04/28 12:04:53;;;;;;;8.57;5.88;;;11.80;68.50;;;;;;5003575;28;20042;-61
2023/04/28 12:07:19;;;;;;;10.43;5.07;;;11.70;75.80;;;;;;4988437;28;20370;-60
2023/04/28 12:10:17;;;;;;;6.18;5.40;;;11.70;72.60;;;;;;4987889;28;20041;-62
2023/04/28 12:12:44;;;;;;;9.27;5.82;;;11.60;80.00;;;;;;5004200;28;20038;-62
2023/04/28 12:15:10;;;;;;;10.63;5.78;;;11.50;83.40;;;;;;5004203;28;20124;-62
2023/04/28 12:17:37;;;;;;;9.15;5.80;;;11.40;89.80;;;;;;4986481;28;20481;-62
2023/04/28 12:20:06;;;;;;;7.85;5.60;;;11.40;90.20;;;;;;5006901;28;20126;-64
2023/04/28 12:22:46;;;;;;;8.38;5.80;;;11.30;91.50;;;;;;5005123;28;20049;-63
2023/04/28 12:25:15;;;;;;;7.38;6.18;;;11.20;92.80;;;;;;4988514;28;20082;-63
2023/04/28 12:27:57;;;;;;;10.70;6.00;;;11.30;96.20;;;;;;4987810;28;20084;-63
2023/04/28 12:30:23;;;;;;;8.77;6.10;;;11.30;96.30;;;;;;4999688;28;20120;-62
2023/04/28 12:32:50;;;;;;;8.35;5.85;;;11.30;98.60;;;;;;4988405;28;20042;-63
2023/04/28 12:35:16;;;;;;;9.65;5.65;;;11.40;97.20;;;;;;4988704;28;20504;-63
2023/04/28 12:37:45;;;;;;;8.75;6.28;;;11.40;96.90;;;;;;4973972;28;20081;-63
2023/04/28 12:40:11;;;;;;;16.70;6.65;;;11.40;98.10;;;;;;4988696;28;20085;-63
2023/04/28 12:42:37;;;;;;;8.75;6.35;;;11.40;97.50;;;;;;5007780;28;20052;-63
2023/04/28 12:45:04;;;;;;;10.88;6.05;;;11.50;96.10;;;;;;4989068;28;20403;-63
2023/04/28 12:47:31;;;;;;;12.13;6.82;;;11.50;96.40;;;;;;5007499;28;20076;-63
2023/04/28 12:49:56;;;;;;;9.75;6.25;;;11.50;97.40;;;;;;5008718;28;20053;-63
2023/04/28 12:52:22;;;;;;;9.70;6.53;;;11.50;94.70;;;;;;5008181;28;20069;-63
2023/04/28 12:54:48;;;;;;;12.13;6.30;;;11.50;93.90;;;;;;5003616;28;20133;-63